CCA168Z ZULS-VQPR
Flight info
| Callsign | CCA168Z |
|---|---|
| Flight time | N/A |
| Altitude | 32100 |
| Route | LXA B345 NONIM/N0480F320 B345 TUMLI/N0481F310 G348 PRO |
| Aircraft | A320/M-SDE3FGHIRWY/LB1 |
Departure
| Time | 2026-05-06 06:52 |
|---|---|
| Airport | Lhasa Gonggar International Airport (ZULS) |
Arrival
| Time | N/A |
|---|---|
| Airport | Paro International Airport (VQPR) |
| Time | Latitude | Longitude | Altitude | Speed | Heading |
|---|---|---|---|---|---|
| 2026-05-06 06:22 | 29.29421 | 90.89856 | 11482 ft | 0 kts | 179° |
| 2026-05-06 06:41 | 29.29423 | 90.89856 | 11487 ft | 1 kts | 179° |
| 2026-05-06 06:42 | 29.29440 | 90.89856 | 11472 ft | 3 kts | 179° |
| 2026-05-06 06:42 | 29.29460 | 90.89856 | 11476 ft | 3 kts | 177° |
| 2026-05-06 06:42 | 29.29480 | 90.89854 | 11470 ft | 3 kts | 174° |
| 2026-05-06 06:42 | 29.29501 | 90.89851 | 11476 ft | 3 kts | 169° |
| 2026-05-06 06:43 | 29.29520 | 90.89846 | 11482 ft | 3 kts | 159° |
| 2026-05-06 06:43 | 29.29532 | 90.89841 | 11484 ft | 1 kts | 153° |
| 2026-05-06 06:43 | 29.29534 | 90.89839 | 11477 ft | 0 kts | 153° |
| 2026-05-06 06:45 | 29.29532 | 90.89841 | 11484 ft | 2 kts | 148° |
| 2026-05-06 06:45 | 29.29525 | 90.89901 | 11479 ft | 15 kts | 89° |
| 2026-05-06 06:45 | 29.29560 | 90.90005 | 11487 ft | 14 kts | 14° |
| 2026-05-06 06:45 | 29.29626 | 90.90055 | 11475 ft | 12 kts | 82° |
| 2026-05-06 06:46 | 29.29625 | 90.90160 | 11484 ft | 17 kts | 89° |
| 2026-05-06 06:46 | 29.29627 | 90.90327 | 11484 ft | 25 kts | 89° |
| 2026-05-06 06:46 | 29.29628 | 90.90551 | 11479 ft | 25 kts | 89° |
| 2026-05-06 06:46 | 29.29632 | 90.90751 | 11487 ft | 25 kts | 89° |
| 2026-05-06 06:47 | 29.29635 | 90.90952 | 11485 ft | 25 kts | 89° |
| 2026-05-06 06:47 | 29.29637 | 90.91153 | 11482 ft | 25 kts | 90° |
| 2026-05-06 06:47 | 29.29638 | 90.91284 | 11482 ft | 25 kts | 88° |
| 2026-05-06 06:47 | 29.29643 | 90.91546 | 11485 ft | 25 kts | 89° |
| 2026-05-06 06:48 | 29.29646 | 90.91744 | 11460 ft | 25 kts | 88° |
| 2026-05-06 06:48 | 29.29651 | 90.91877 | 11453 ft | 25 kts | 88° |
| 2026-05-06 06:48 | 29.29658 | 90.92140 | 11463 ft | 25 kts | 89° |
| 2026-05-06 06:48 | 29.29658 | 90.92276 | 11463 ft | 25 kts | 90° |
| 2026-05-06 06:49 | 29.29661 | 90.92479 | 11461 ft | 26 kts | 89° |
| 2026-05-06 06:49 | 29.29661 | 90.92682 | 11460 ft | 26 kts | 90° |
| 2026-05-06 06:49 | 29.29665 | 90.92885 | 11455 ft | 25 kts | 88° |
| 2026-05-06 06:49 | 29.29670 | 90.93087 | 11460 ft | 25 kts | 89° |
| 2026-05-06 06:50 | 29.29676 | 90.93251 | 11458 ft | 10 kts | 65° |
| 2026-05-06 06:50 | 29.29741 | 90.93268 | 11465 ft | 10 kts | 1° |
| 2026-05-06 06:50 | 29.29830 | 90.93231 | 11449 ft | 19 kts | 299° |
| 2026-05-06 06:50 | 29.29836 | 90.93081 | 11454 ft | 21 kts | 268° |
| 2026-05-06 06:51 | 29.29827 | 90.92745 | 11459 ft | 73 kts | 268° |
| 2026-05-06 06:51 | 29.29817 | 90.91944 | 11463 ft | 127 kts | 269° |
| 2026-05-06 06:51 | 29.29798 | 90.90751 | 11473 ft | 171 kts | 268° |
| 2026-05-06 06:51 | 29.29741 | 90.89315 | 11901 ft | 183 kts | 264° |
| 2026-05-06 06:52 | 29.29714 | 90.87854 | 12855 ft | 185 kts | 264° |
| 2026-05-06 06:52 | 29.29695 | 90.86332 | 13156 ft | 197 kts | 263° |
| 2026-05-06 06:52 | 29.29645 | 90.84713 | 13271 ft | 210 kts | 259° |
| 2026-05-06 06:52 | 29.29218 | 90.83077 | 13359 ft | 220 kts | 242° |
| 2026-05-06 06:53 | 29.28748 | 90.81333 | 13479 ft | 241 kts | 261° |
| 2026-05-06 06:53 | 29.28855 | 90.79385 | 13794 ft | 252 kts | 282° |
| 2026-05-06 06:53 | 29.29622 | 90.77560 | 14325 ft | 261 kts | 304° |
| 2026-05-06 06:53 | 29.30999 | 90.76170 | 15101 ft | 271 kts | 328° |
| 2026-05-06 06:54 | 29.32814 | 90.75515 | 15769 ft | 278 kts | 354° |
| 2026-05-06 06:54 | 29.34752 | 90.75790 | 16017 ft | 287 kts | 20° |
| 2026-05-06 06:54 | 29.36415 | 90.77018 | 16179 ft | 286 kts | 49° |
| 2026-05-06 06:54 | 29.37460 | 90.78917 | 16704 ft | 282 kts | 75° |
| 2026-05-06 06:55 | 29.37712 | 90.81109 | 17187 ft | 277 kts | 102° |
| 2026-05-06 06:55 | 29.37304 | 90.83261 | 17621 ft | 281 kts | 107° |
| 2026-05-06 06:55 | 29.37034 | 90.85562 | 17808 ft | 300 kts | 96° |
| 2026-05-06 06:55 | 29.36816 | 90.87957 | 18234 ft | 303 kts | 107° |
| 2026-05-06 06:56 | 29.36205 | 90.90268 | 18684 ft | 303 kts | 118° |
| 2026-05-06 06:56 | 29.35218 | 90.92395 | 19087 ft | 302 kts | 128° |
| 2026-05-06 06:56 | 29.33880 | 90.94247 | 19547 ft | 302 kts | 140° |
| 2026-05-06 06:56 | 29.32249 | 90.95753 | 19993 ft | 301 kts | 152° |
| 2026-05-06 06:57 | 29.30393 | 90.96843 | 20449 ft | 300 kts | 164° |
| 2026-05-06 06:57 | 29.28395 | 90.97475 | 20917 ft | 297 kts | 175° |
| 2026-05-06 06:57 | 29.26340 | 90.97638 | 21421 ft | 296 kts | 186° |
| 2026-05-06 06:57 | 29.24305 | 90.97338 | 21925 ft | 294 kts | 198° |
| 2026-05-06 06:58 | 29.22377 | 90.96594 | 22465 ft | 292 kts | 208° |
| 2026-05-06 06:58 | 29.20624 | 90.95442 | 22989 ft | 290 kts | 218° |
| 2026-05-06 06:58 | 29.19106 | 90.93923 | 23421 ft | 291 kts | 229° |
| 2026-05-06 06:58 | 29.17872 | 90.92090 | 23794 ft | 292 kts | 239° |
| 2026-05-06 06:59 | 29.16972 | 90.90005 | 24175 ft | 294 kts | 249° |
| 2026-05-06 06:59 | 29.16434 | 90.87748 | 24563 ft | 295 kts | 258° |
| 2026-05-06 06:59 | 29.16288 | 90.85392 | 24970 ft | 300 kts | 269° |
| 2026-05-06 06:59 | 29.16569 | 90.83011 | 25436 ft | 305 kts | 279° |
| 2026-05-06 07:00 | 29.17160 | 90.80645 | 25706 ft | 314 kts | 282° |
| 2026-05-06 07:00 | 29.17783 | 90.78204 | 25832 ft | 325 kts | 282° |
| 2026-05-06 07:00 | 29.18427 | 90.75687 | 25992 ft | 335 kts | 282° |
| 2026-05-06 07:00 | 29.19090 | 90.73087 | 26116 ft | 346 kts | 282° |
| 2026-05-06 07:01 | 29.19774 | 90.70396 | 26237 ft | 358 kts | 282° |
| 2026-05-06 07:01 | 29.20478 | 90.67621 | 26355 ft | 367 kts | 282° |
| 2026-05-06 07:01 | 29.21198 | 90.64783 | 26478 ft | 376 kts | 282° |
| 2026-05-06 07:01 | 29.21926 | 90.61916 | 26599 ft | 384 kts | 282° |
| 2026-05-06 07:02 | 29.22678 | 90.58943 | 26763 ft | 393 kts | 282° |
| 2026-05-06 07:02 | 29.23448 | 90.55903 | 26887 ft | 402 kts | 282° |
| 2026-05-06 07:02 | 29.24233 | 90.52801 | 27011 ft | 409 kts | 282° |
| 2026-05-06 07:02 | 29.25030 | 90.49642 | 27151 ft | 416 kts | 283° |
| 2026-05-06 07:03 | 29.25851 | 90.46440 | 27274 ft | 424 kts | 284° |
| 2026-05-06 07:03 | 29.26895 | 90.43250 | 27434 ft | 432 kts | 290° |
| 2026-05-06 07:03 | 29.28216 | 90.40113 | 27562 ft | 442 kts | 295° |
| 2026-05-06 07:03 | 29.29796 | 90.37058 | 27717 ft | 450 kts | 298° |
| 2026-05-06 07:04 | 29.31311 | 90.33935 | 27996 ft | 447 kts | 289° |
| 2026-05-06 07:04 | 29.32312 | 90.30596 | 28403 ft | 441 kts | 279° |
| 2026-05-06 07:04 | 29.32761 | 90.27152 | 28845 ft | 435 kts | 270° |
| 2026-05-06 07:04 | 29.32757 | 90.23708 | 29293 ft | 431 kts | 266° |
| 2026-05-06 07:05 | 29.32697 | 90.20281 | 29723 ft | 430 kts | 265° |
| 2026-05-06 07:05 | 29.32671 | 90.16851 | 30058 ft | 431 kts | 268° |
| 2026-05-06 07:05 | 29.32738 | 90.13418 | 30439 ft | 430 kts | 269° |
| 2026-05-06 07:05 | 29.32869 | 90.10011 | 30855 ft | 427 kts | 270° |
| 2026-05-06 07:06 | 29.33025 | 90.06621 | 31217 ft | 425 kts | 270° |
| 2026-05-06 07:06 | 29.33179 | 90.03251 | 31547 ft | 422 kts | 270° |
| 2026-05-06 07:06 | 29.33322 | 89.99895 | 31841 ft | 421 kts | 270° |
| 2026-05-06 07:06 | 29.33451 | 89.96542 | 31980 ft | 422 kts | 269° |
| 2026-05-06 07:07 | 29.33565 | 89.93163 | 32004 ft | 426 kts | 269° |
| 2026-05-06 07:07 | 29.33770 | 89.86368 | 32002 ft | 427 kts | 269° |
| 2026-05-06 07:08 | 29.33966 | 89.79555 | 31994 ft | 427 kts | 269° |
| 2026-05-06 07:08 | 29.34175 | 89.72751 | 32000 ft | 427 kts | 269° |
| 2026-05-06 07:09 | 29.34384 | 89.65992 | 31978 ft | 428 kts | 269° |
| 2026-05-06 07:09 | 29.34586 | 89.59180 | 31981 ft | 428 kts | 269° |
| 2026-05-06 07:10 | 29.34784 | 89.52369 | 31952 ft | 428 kts | 269° |
| 2026-05-06 07:10 | 29.34980 | 89.45556 | 31954 ft | 428 kts | 269° |
| 2026-05-06 07:11 | 29.35174 | 89.38748 | 31928 ft | 427 kts | 269° |
| 2026-05-06 07:11 | 29.35212 | 89.31951 | 31928 ft | 424 kts | 261° |
| 2026-05-06 07:12 | 29.33491 | 89.25563 | 31928 ft | 421 kts | 241° |
| 2026-05-06 07:12 | 29.29913 | 89.20271 | 31911 ft | 422 kts | 229° |
| 2026-05-06 07:13 | 29.25907 | 89.15331 | 31904 ft | 424 kts | 229° |
| 2026-05-06 07:13 | 29.21896 | 89.10391 | 31900 ft | 424 kts | 229° |
| 2026-05-06 07:14 | 29.17885 | 89.05458 | 31911 ft | 423 kts | 229° |
| 2026-05-06 07:14 | 29.13877 | 89.00532 | 31915 ft | 423 kts | 229° |
| 2026-05-06 07:15 | 29.09870 | 88.95615 | 31923 ft | 422 kts | 229° |
| 2026-05-06 07:15 | 29.05863 | 88.90700 | 31933 ft | 423 kts | 229° |
| 2026-05-06 07:16 | 29.01852 | 88.85788 | 31935 ft | 422 kts | 229° |
| 2026-05-06 07:16 | 28.97835 | 88.80878 | 31957 ft | 424 kts | 229° |
| 2026-05-06 07:17 | 28.93810 | 88.75968 | 31937 ft | 423 kts | 229° |
| 2026-05-06 07:17 | 28.89784 | 88.71063 | 31965 ft | 423 kts | 229° |
| 2026-05-06 07:18 | 28.85765 | 88.66157 | 32015 ft | 423 kts | 229° |
| 2026-05-06 07:18 | 28.81751 | 88.61265 | 32029 ft | 423 kts | 229° |
| 2026-05-06 07:19 | 28.77729 | 88.56386 | 32025 ft | 422 kts | 229° |
| 2026-05-06 07:19 | 28.73709 | 88.51510 | 32062 ft | 422 kts | 229° |
| 2026-05-06 07:20 | 28.69693 | 88.46634 | 32086 ft | 422 kts | 229° |
| 2026-05-06 07:20 | 28.65667 | 88.41759 | 32075 ft | 423 kts | 229° |
| 2026-05-06 07:21 | 28.61650 | 88.36898 | 32078 ft | 421 kts | 230° |
| 2026-05-06 07:21 | 28.57644 | 88.32058 | 32073 ft | 419 kts | 230° |
| 2026-05-06 07:22 | 28.53638 | 88.27230 | 32072 ft | 419 kts | 230° |
| 2026-05-06 07:22 | 28.49642 | 88.22408 | 32090 ft | 419 kts | 230° |
| 2026-05-06 07:23 | 28.45643 | 88.17594 | 32089 ft | 419 kts | 229° |
| 2026-05-06 07:23 | 28.41643 | 88.12787 | 32088 ft | 419 kts | 230° |
| 2026-05-06 07:24 | 28.37638 | 88.07986 | 32102 ft | 418 kts | 229° |
| 2026-05-06 07:24 | 28.33631 | 88.03181 | 32102 ft | 420 kts | 229° |
| 2026-05-06 07:25 | 28.29614 | 87.98371 | 32122 ft | 420 kts | 229° |
| 2026-05-06 07:25 | 28.25593 | 87.93555 | 32187 ft | 420 kts | 229° |
| 2026-05-06 07:26 | 28.21599 | 87.88776 | 32188 ft | 420 kts | 229° |
| 2026-05-06 07:26 | 28.17572 | 87.83972 | 32213 ft | 420 kts | 229° |
| 2026-05-06 07:27 | 28.13537 | 87.79170 | 32214 ft | 421 kts | 229° |
| 2026-05-06 07:27 | 28.09502 | 87.74370 | 32214 ft | 421 kts | 229° |
| 2026-05-06 07:28 | 28.05469 | 87.69576 | 32274 ft | 420 kts | 229° |
| 2026-05-06 07:28 | 27.99445 | 87.62405 | 32299 ft | 419 kts | 229° |
| 2026-05-06 07:29 | 27.95428 | 87.57638 | 32302 ft | 418 kts | 229° |
| 2026-05-06 07:29 | 27.91415 | 87.52887 | 32331 ft | 418 kts | 229° |
| 2026-05-06 07:30 | 27.87407 | 87.48155 | 32338 ft | 417 kts | 229° |
| 2026-05-06 07:30 | 27.83156 | 87.43688 | 32332 ft | 421 kts | 218° |
| 2026-05-06 07:31 | 27.77836 | 87.40775 | 32322 ft | 428 kts | 207° |
| 2026-05-06 07:31 | 27.72325 | 87.38248 | 32312 ft | 427 kts | 207° |
| 2026-05-06 07:32 | 27.66822 | 87.35718 | 32298 ft | 425 kts | 207° |
| 2026-05-06 07:32 | 27.61366 | 87.33201 | 32274 ft | 423 kts | 207° |
| 2026-05-06 07:33 | 27.55888 | 87.30676 | 32254 ft | 426 kts | 207° |
| 2026-05-06 07:33 | 27.51320 | 87.28573 | 32258 ft | 426 kts | 207° |
| 2026-05-06 07:34 | 27.45817 | 87.26041 | 32276 ft | 427 kts | 207° |
| 2026-05-06 07:34 | 27.40326 | 87.23519 | 32203 ft | 426 kts | 207° |
| 2026-05-06 07:35 | 27.37472 | 87.22546 | 32217 ft | 435 kts | 194° |
| 2026-05-06 07:35 | 27.34411 | 87.22488 | 32218 ft | 448 kts | 178° |
| 2026-05-06 07:35 | 27.31382 | 87.23492 | 32175 ft | 464 kts | 161° |
| 2026-05-06 07:35 | 27.28677 | 87.25573 | 32166 ft | 482 kts | 142° |
| 2026-05-06 07:36 | 27.26593 | 87.28598 | 32152 ft | 496 kts | 128° |
| 2026-05-06 07:36 | 27.24776 | 87.31893 | 32143 ft | 497 kts | 128° |
| 2026-05-06 07:36 | 27.21150 | 87.38537 | 32143 ft | 500 kts | 128° |
| 2026-05-06 07:37 | 27.17507 | 87.45189 | 32116 ft | 500 kts | 128° |
| 2026-05-06 07:37 | 27.13832 | 87.51835 | 32125 ft | 503 kts | 128° |
| 2026-05-06 07:38 | 27.10110 | 87.58522 | 32148 ft | 506 kts | 128° |
| 2026-05-06 07:38 | 27.06377 | 87.65241 | 32122 ft | 507 kts | 128° |
| 2026-05-06 07:39 | 27.02647 | 87.71956 | 32141 ft | 507 kts | 128° |
| 2026-05-06 07:39 | 26.98924 | 87.78665 | 32152 ft | 506 kts | 128° |
| 2026-05-06 07:40 | 26.95204 | 87.85357 | 32111 ft | 506 kts | 128° |
| 2026-05-06 07:40 | 26.91474 | 87.92030 | 32118 ft | 505 kts | 128° |
| 2026-05-06 07:41 | 26.87762 | 87.98654 | 32117 ft | 505 kts | 128° |
| 2026-05-06 07:41 | 26.84030 | 88.05319 | 32054 ft | 505 kts | 128° |
| 2026-05-06 07:42 | 26.80294 | 88.11986 | 32047 ft | 506 kts | 128° |
| 2026-05-06 07:42 | 26.76543 | 88.18662 | 32052 ft | 507 kts | 128° |
| 2026-05-06 07:43 | 26.73154 | 88.25618 | 32016 ft | 518 kts | 114° |
| 2026-05-06 07:43 | 26.71832 | 88.33611 | 31647 ft | 529 kts | 93° |
| 2026-05-06 07:44 | 26.72228 | 88.37705 | 31469 ft | 532 kts | 76° |
| 2026-05-06 07:44 | 26.73636 | 88.41521 | 31519 ft | 532 kts | 58° |
| 2026-05-06 07:44 | 26.75609 | 88.45031 | 31369 ft | 533 kts | 56° |
| 2026-05-06 07:44 | 26.77593 | 88.48531 | 31122 ft | 533 kts | 57° |
| 2026-05-06 07:45 | 26.79556 | 88.52049 | 30889 ft | 532 kts | 57° |
| 2026-05-06 07:45 | 26.81490 | 88.55580 | 30659 ft | 532 kts | 58° |
| 2026-05-06 07:45 | 26.83404 | 88.59117 | 30430 ft | 531 kts | 58° |
| 2026-05-06 07:45 | 26.85309 | 88.62651 | 30204 ft | 530 kts | 58° |
| 2026-05-06 07:46 | 26.87211 | 88.66178 | 30038 ft | 529 kts | 58° |
| 2026-05-06 07:46 | 26.89114 | 88.69697 | 29770 ft | 528 kts | 58° |
| 2026-05-06 07:46 | 26.91017 | 88.73201 | 29495 ft | 521 kts | 58° |
| 2026-05-06 07:46 | 26.92879 | 88.76618 | 29233 ft | 507 kts | 58° |
| 2026-05-06 07:47 | 26.94692 | 88.79947 | 28970 ft | 494 kts | 58° |
| 2026-05-06 07:47 | 26.96462 | 88.83196 | 28701 ft | 482 kts | 58° |
| 2026-05-06 07:47 | 26.98188 | 88.86372 | 28431 ft | 471 kts | 58° |
| 2026-05-06 07:47 | 26.99840 | 88.89498 | 28219 ft | 461 kts | 60° |
| 2026-05-06 07:48 | 27.01406 | 88.92591 | 27961 ft | 451 kts | 61° |
| 2026-05-06 07:48 | 27.02909 | 88.95641 | 27696 ft | 442 kts | 61° |
| 2026-05-06 07:48 | 27.04371 | 88.98645 | 27446 ft | 436 kts | 61° |
| 2026-05-06 07:48 | 27.05822 | 89.01613 | 26995 ft | 435 kts | 61° |
| 2026-05-06 07:49 | 27.07292 | 89.04600 | 26269 ft | 434 kts | 60° |
| 2026-05-06 07:49 | 27.08744 | 89.07530 | 25662 ft | 426 kts | 60° |
| 2026-05-06 07:49 | 27.10183 | 89.10417 | 25004 ft | 421 kts | 60° |
| 2026-05-06 07:49 | 27.11604 | 89.13262 | 24358 ft | 415 kts | 60° |
| 2026-05-06 07:50 | 27.13007 | 89.16073 | 23716 ft | 410 kts | 60° |
| 2026-05-06 07:50 | 27.14372 | 89.18812 | 23037 ft | 405 kts | 60° |
| 2026-05-06 07:50 | 27.15735 | 89.21550 | 22340 ft | 399 kts | 60° |
| 2026-05-06 07:50 | 27.17073 | 89.24246 | 21624 ft | 393 kts | 60° |
| 2026-05-06 07:51 | 27.18394 | 89.26908 | 21024 ft | 387 kts | 60° |
| 2026-05-06 07:51 | 27.19691 | 89.29527 | 20425 ft | 380 kts | 60° |
| 2026-05-06 07:51 | 27.20967 | 89.32107 | 19821 ft | 375 kts | 60° |
| 2026-05-06 07:51 | 27.22226 | 89.34654 | 19249 ft | 370 kts | 60° |
| 2026-05-06 07:52 | 27.23467 | 89.37166 | 18629 ft | 365 kts | 60° |
| 2026-05-06 07:52 | 27.24692 | 89.39644 | 17991 ft | 360 kts | 60° |
| 2026-05-06 07:52 | 27.25904 | 89.42093 | 17205 ft | 360 kts | 60° |
| 2026-05-06 07:52 | 27.27128 | 89.44565 | 16237 ft | 363 kts | 60° |
| 2026-05-06 07:53 | 27.28603 | 89.46864 | 15328 ft | 364 kts | 40° |
| 2026-05-06 07:53 | 27.30773 | 89.48268 | 14425 ft | 362 kts | 14° |
| 2026-05-06 07:53 | 27.33219 | 89.48402 | 13814 ft | 346 kts | 345° |
| 2026-05-06 07:53 | 27.35353 | 89.47373 | 13515 ft | 325 kts | 325° |
| 2026-05-06 07:54 | 27.37107 | 89.45882 | 13204 ft | 305 kts | 316° |
| 2026-05-06 07:54 | 27.38553 | 89.44292 | 12896 ft | 277 kts | 304° |
| 2026-05-06 07:54 | 27.39509 | 89.42499 | 12609 ft | 260 kts | 293° |
| 2026-05-06 07:54 | 27.40272 | 89.40727 | 12012 ft | 248 kts | 291° |
| 2026-05-06 07:55 | 27.40879 | 89.38934 | 11178 ft | 244 kts | 288° |